Daglege Rapportar

Klikk her for oppdatering!


Detaljar i dag

24/6/21
Time         Wind Dir   Wind Spd  Wind Gust   Humidity       Temp  Raw Barom   Tot Rain Temp Out H Temp Out L  DailyRain   HourRain
                            mps        mps          %         C         mb         mm         C         C         mm         mm
0:00              360          1          4         66       15.3    1022.27     326.00       15.3       15.3       0.00       0.00
1:00              360          1          1         72       14.6    1022.07     326.00       15.4       14.6       0.00       0.00
2:00              360          0          1         75       14.3    1021.63     326.00       15.4       14.3       0.00       0.00
3:00              360          0          1         75       14.3    1021.56     326.20       15.4       14.2       0.20       0.20
4:00              360          1          1         76       14.1    1021.43     326.20       15.4       14.0       0.20       0.20
5:00              360          0          1         78       13.8    1021.33     326.20       15.4       13.8       0.20       0.00
6:00              360          0          1         79       14.2    1021.09     326.20       15.4       13.8       0.20       0.00
7:00              360          0          0         78       14.2    1020.75     326.20       15.4       13.8       0.20       0.00
8:00              360          0          0         80       14.5    1020.69     326.20       15.4       13.8       0.20       0.00
9:00              273          0          1         77       14.9    1020.38     326.20       15.4       13.8       0.20       0.00
10:00             326          0          1         76       15.2    1020.18     326.20       15.4       13.8       0.20       0.00
11:00             173          0          1         74       15.5    1019.71     326.20       15.5       13.8       0.20       0.00

 


Detaljar i gr

23/6/21
Time         Wind Dir   Wind Spd  Wind Gust   Humidity       Temp  Raw Barom   Tot Rain Temp Out H Temp Out L  DailyRain   HourRain
                            mps        mps          %         C         mb         mm         C         C         mm         mm
0:00              360          0          2         73       13.7    1019.37     325.60       13.7       13.7       1.80       0.20
1:00              360          0          2         77       12.6    1019.84     325.60       13.7       12.4       0.00       0.20
2:00              360          0          2         80       11.9    1019.84     325.60       13.7       11.9       0.00       0.00
3:00               13          0          1         81       11.5    1020.55     325.60       13.7       11.4       0.00       0.00
4:00              350          0          1         83       11.1    1020.89     325.60       13.7       11.0       0.00       0.00
5:00              351          0          1         85       10.6    1021.09     325.60       13.7       10.6       0.00       0.00
6:00              360          1          1         86       10.9    1021.33     325.60       13.7       10.4       0.00       0.00
7:00              360          0          0         84       11.7    1021.60     325.60       13.7       10.4       0.00       0.00
8:00              134          1          1         79       13.4    1021.87     325.60       13.7       10.4       0.00       0.00
9:00              309          2          4         78       14.4    1022.27     325.80       14.4       10.4       0.20       0.20
10:00             342          0          4         77       15.2    1022.04     325.80       15.2       10.4       0.20       0.00
11:00             150          1          3         72       15.5    1021.97     325.80       16.0       10.4       0.20       0.00
12:00             175          1          2         72       16.3    1021.83     326.00       16.3       10.4       0.40       0.20
13:00             146          0          4         70       17.3    1021.50     326.00       17.4       10.4       0.40       0.00
14:00             149          0          3         65       17.9    1021.46     326.00       18.2       10.4       0.40       0.00
15:00             190          3          5         54       19.4    1021.06     326.00       19.4       10.4       0.40       0.00
16:00              35          1          6         54       19.0    1021.02     326.00       20.3       10.4       0.40       0.00
17:00             292          2          5         60       18.2    1021.19     326.00       20.3       10.4       0.40       0.00
18:00             207          0          5         63       16.9    1021.36     326.00       20.3       10.4       0.40       0.00
19:00             350          4          6         62       16.9    1021.70     326.00       20.3       10.4       0.40       0.00
20:00             342          2          5         62       16.9    1021.77     326.00       20.3       10.4       0.40       0.00
21:00             360          2          4         65       16.3    1021.83     326.00       20.3       10.4       0.40       0.00
22:00             319          1          4         65       15.9    1021.83     326.00       20.3       10.4       0.40       0.00
23:00             310          0          2         70       15.3    1022.00     326.00       20.3       10.4       0.40       0.00